Time;durP1;ratioP1;P1;durP2;ratioP2;P2;SDS_P1;SDS_P2;PMS_P1;PMS_P2;Temp;Humidity;BMP_temperature;BMP_pressure;BME280_temperature;BME280_humidity;BME280_pressure;Samples;Min_cycle;Max_cycle;Signal;HPM_P1;HPM_P2
2021/11/02 00:01:48;;;;;;;33.23;19.23;;;;;;;6.88;100.00;98805.95;1772135;79;21410;-66
2021/11/02 00:04:16;;;;;;;37.48;19.70;;;;;;;6.90;100.00;98805.52;1771672;79;21418;-65
2021/11/02 00:06:46;;;;;;;35.25;20.50;;;;;;;6.95;100.00;98800.30;1771129;79;21514;-64
2021/11/02 00:09:21;;;;;;;38.65;21.93;;;;;;;6.98;100.00;98795.05;1783199;80;21400;-65
2021/11/02 00:11:50;;;;;;;39.98;21.15;;;;;;;6.97;100.00;98795.05;1788189;79;21085;-65
2021/11/02 00:14:20;;;;;;;34.73;20.15;;;;;;;6.97;100.00;98793.74;1783615;79;20966;-65
2021/11/02 00:16:55;;;;;;;37.60;21.45;;;;;;;7.00;100.00;98790.69;1789087;80;20880;-66
2021/11/02 00:19:19;;;;;;;46.58;23.07;;;;;;;7.07;100.00;98788.95;1788509;80;21434;-66
2021/11/02 00:21:49;;;;;;;39.58;22.48;;;;;;;7.09;100.00;98785.46;1789223;80;21459;-65
2021/11/02 00:24:38;;;;;;;40.03;21.68;;;;;;;7.08;100.00;98785.46;1789434;80;21427;-64
2021/11/02 00:26:46;;;;;;;42.08;21.27;;;;;;;7.10;100.00;98781.13;1784758;80;20856;-65
2021/11/02 00:29:14;;;;;;;39.90;22.40;;;;;;;7.12;100.00;98770.20;1787169;79;21441;-65
2021/11/02 00:31:42;;;;;;;39.67;22.70;;;;;;;7.15;100.00;98773.70;1781872;79;21486;-65
2021/11/02 00:34:12;;;;;;;41.37;23.18;;;;;;;7.15;100.00;98771.52;1771787;79;21497;-66
2021/11/02 00:36:39;;;;;;;43.35;22.95;;;;;;;7.19;100.00;98768.02;1771376;79;21081;-65
2021/11/02 00:39:07;;;;;;;42.15;21.87;;;;;;;7.24;100.00;98766.28;1771926;79;20899;-65
2021/11/02 00:41:35;;;;;;;43.45;23.27;;;;;;;7.29;100.00;98757.97;1771785;79;20927;-65
2021/11/02 00:44:04;;;;;;;42.75;22.90;;;;;;;7.35;100.00;98754.05;1773490;80;21448;-65
2021/11/02 00:46:34;;;;;;;43.92;23.22;;;;;;;7.37;100.00;98754.92;1785006;79;20860;-65
2021/11/02 00:49:04;;;;;;;41.42;22.62;;;;;;;7.40;100.00;98751.42;1789546;80;21083;-65
2021/11/02 00:51:32;;;;;;;40.98;21.73;;;;;;;7.42;100.00;98753.60;1763913;80;21447;-65
2021/11/02 00:54:01;;;;;;;45.45;22.62;;;;;;;7.46;100.00;98754.05;1771501;79;21495;-65
2021/11/02 00:56:29;;;;;;;40.83;21.50;;;;;;;7.48;100.00;98749.23;1745368;81;21430;-65
2021/11/02 00:58:57;;;;;;;44.70;23.07;;;;;;;7.45;100.00;98753.60;1778364;79;20919;-65
2021/11/02 01:01:25;;;;;;;46.77;23.42;;;;;;;7.41;100.00;98743.55;1787960;79;21095;-66
2021/11/02 01:03:54;;;;;;;42.75;22.58;;;;;;;7.42;100.00;98739.17;1772494;79;20915;-66
2021/11/02 01:06:22;;;;;;;43.23;22.40;;;;;;;7.47;100.00;98740.05;1753205;80;20975;-65
2021/11/02 01:08:50;;;;;;;42.03;23.15;;;;;;;7.50;100.00;98733.05;1768060;79;20940;-65
2021/11/02 01:11:22;;;;;;;41.02;21.85;;;;;;;7.52;100.00;98733.91;1764898;80;21544;-65
2021/11/02 01:13:53;;;;;;;40.95;20.88;;;;;;;7.55;100.00;98730.41;1771648;80;21419;-65
2021/11/02 01:16:25;;;;;;;36.90;20.27;;;;;;;7.57;100.00;98724.32;1770598;79;21403;-65
2021/11/02 01:18:54;;;;;;;39.88;21.68;;;;;;;7.61;100.00;98716.44;1768105;79;21453;-65
2021/11/02 01:21:22;;;;;;;36.95;20.68;;;;;;;7.63;100.00;98709.44;1774789;80;21466;-65
2021/11/02 01:23:51;;;;;;;36.53;20.02;;;;;;;7.66;100.00;98701.56;1775017;80;20928;-65
2021/11/02 01:26:19;;;;;;;35.43;19.55;;;;;;;7.66;100.00;98697.63;1775524;80;21486;-65
2021/11/02 01:28:47;;;;;;;32.45;18.32;;;;;;;7.67;100.00;98700.69;1775683;80;20911;-64
2021/11/02 01:31:16;;;;;;;31.68;17.85;;;;;;;7.67;100.00;98705.49;1775423;80;21769;-65
2021/11/02 01:33:44;;;;;;;27.58;16.55;;;;;;;7.69;100.00;98698.48;1774945;80;20935;-66
2021/11/02 01:36:15;;;;;;;30.90;18.00;;;;;;;7.69;100.00;98698.48;1775180;80;20895;-67
2021/11/02 01:38:45;;;;;;;29.90;17.87;;;;;;;7.71;100.00;98685.36;1760865;80;21114;-65
2021/11/02 01:41:18;;;;;;;30.08;17.23;;;;;;;7.71;100.00;98686.23;1760172;80;20900;-65
2021/11/02 01:43:43;;;;;;;29.30;16.30;;;;;;;7.74;100.00;98678.79;1769208;80;20857;-65
2021/11/02 01:46:25;;;;;;;31.82;18.40;;;;;;;7.77;100.00;98670.91;1772268;80;20923;-65
2021/11/02 01:48:55;;;;;;;28.95;16.87;;;;;;;7.79;100.00;98667.39;1774765;80;20876;-66
2021/11/02 01:51:27;;;;;;;25.05;17.27;;;;;;;7.82;100.00;98667.83;1773731;80;21123;-65
2021/11/02 01:53:55;;;;;;;25.68;15.83;;;;;;;7.83;100.00;98661.26;1768232;80;20919;-66
2021/11/02 01:56:26;;;;;;;26.12;16.23;;;;;;;7.84;100.00;98661.69;1774652;80;21429;-66
2021/11/02 01:58:56;;;;;;;27.85;16.07;;;;;;;7.87;100.00;98656.87;1770172;80;21482;-66
2021/11/02 02:01:49;;;;;;;30.62;18.75;;;;;;;7.89;100.00;98655.11;1759238;80;20942;-66
2021/11/02 02:04:45;;;;;;;32.23;18.07;;;;;;;7.92;100.00;98657.73;1769676;79;21097;-66
2021/11/02 02:07:49;;;;;;;33.85;17.87;;;;;;;7.93;100.00;98661.23;1741381;80;20863;-68
2021/11/02 02:10:42;;;;;;;31.93;17.77;;;;;;;7.95;100.00;98649.84;1769359;79;21462;-65
2021/11/02 02:13:17;;;;;;;34.83;19.10;;;;;;;7.97;100.00;98638.02;1757540;80;20955;-66
2021/11/02 02:16:02;;;;;;;32.53;18.07;;;;;;;7.98;100.00;98640.63;1782317;79;20884;-65
2021/11/02 02:18:54;;;;;;;35.17;19.07;;;;;;;7.97;100.00;98636.26;1781534;80;21403;-66
2021/11/02 02:21:42;;;;;;;33.70;17.75;;;;;;;7.97;100.00;98642.83;1770528;80;20980;-66
2021/11/02 02:24:41;;;;;;;37.85;19.07;;;;;;;8.00;100.00;98643.25;1716438;80;21664;-66
2021/11/02 02:27:35;;;;;;;34.20;18.25;;;;;;;8.01;100.00;98637.99;1769541;79;20948;-66
2021/11/02 02:30:11;;;;;;;40.45;19.92;;;;;;;8.01;100.00;98628.80;1776257;79;20950;-67
2021/11/02 02:32:43;;;;;;;41.02;20.27;;;;;;;8.02;100.00;98631.86;1708337;82;21067;-67
2021/11/02 02:35:12;;;;;;;38.10;20.10;;;;;;;8.01;100.00;98623.98;1703445;83;20951;-66
2021/11/02 02:37:41;;;;;;;42.25;22.00;;;;;;;8.03;100.00;98617.84;1736586;81;21449;-66
2021/11/02 02:40:11;;;;;;;43.10;21.77;;;;;;;8.05;100.00;98623.13;1734984;81;20960;-65
2021/11/02 02:42:40;;;;;;;46.00;23.95;;;;;;;8.05;100.00;98619.19;1736572;81;20958;-66
2021/11/02 02:45:09;;;;;;;45.20;23.38;;;;;;;8.04;100.00;98623.97;1713921;83;21152;-65
2021/11/02 02:47:37;;;;;;;44.85;22.35;;;;;;;8.03;100.00;98624.41;1712411;83;21444;-66
2021/11/02 02:50:08;;;;;;;46.75;23.25;;;;;;;8.02;100.00;98618.73;1731897;81;20960;-66
2021/11/02 02:52:38;;;;;;;47.33;22.77;;;;;;;8.04;100.00;98619.63;1739510;81;21451;-67
2021/11/02 02:55:07;;;;;;;57.05;25.60;;;;;;;8.06;100.00;98617.87;1687650;83;20900;-68
2021/11/02 02:57:36;;;;;;;47.08;24.40;;;;;;;8.05;100.00;98621.37;1736384;81;22809;-67
2021/11/02 03:00:08;;;;;;;46.55;22.60;;;;;;;8.04;100.00;98608.21;1743423;82;20948;-67
2021/11/02 03:02:36;;;;;;;46.55;22.35;;;;;;;8.02;100.00;98604.72;1716151;82;20958;-67
2021/11/02 03:05:07;;;;;;;41.88;22.10;;;;;;;8.02;100.00;98600.34;1718303;82;20976;-66
2021/11/02 03:07:36;;;;;;;42.13;21.82;;;;;;;8.02;100.00;98595.53;1746871;81;20917;-59
2021/11/02 03:10:07;;;;;;;42.38;21.95;;;;;;;8.01;100.00;98597.28;1716893;82;21094;-64
2021/11/02 03:12:37;;;;;;;37.50;19.92;;;;;;;8.01;100.00;98598.59;1743811;82;20877;-65
2021/11/02 03:44:33;;;;;;;21.95;14.60;;;;;;;7.68;100.00;98590.86;1716615;82;20948;-66
2021/11/02 03:49:57;;;;;;;23.18;14.43;;;;;;;7.68;100.00;98589.55;1703623;83;20931;-64
2021/11/02 03:54:30;;;;;;;21.02;13.75;;;;;;;7.65;100.00;98586.94;1722785;83;21138;-66
2021/11/02 03:54:47;;;;;;;21.95;13.40;;;;;;;7.65;100.00;98582.56;1667805;84;21449;-66
2021/11/02 03:57:48;;;;;;;20.17;13.50;;;;;;;7.65;100.00;98583.87;1707635;83;21472;-65
2021/11/02 04:31:30;;;;;;;21.27;13.83;;;;;;;7.79;100.00;98556.25;1775467;80;21557;-66
2021/11/02 05:48:11;;;;;;;23.65;14.43;;;;;;;8.00;100.00;98570.58;1757282;80;20868;-64
2021/11/02 05:51:05;;;;;;;28.15;15.55;;;;;;;8.00;100.00;98564.02;1766021;80;20900;-66
2021/11/02 05:53:57;;;;;;;23.15;14.28;;;;;;;8.01;100.00;98565.77;1760788;80;20890;-64
2021/11/02 05:56:24;;;;;;;23.00;14.13;;;;;;;8.03;100.00;98560.06;1758246;80;21466;-64
2021/11/02 05:59:12;;;;;;;25.68;14.58;;;;;;;8.06;100.00;98558.77;1763688;80;21361;-63
2021/11/02 06:04:37;;;;;;;22.73;14.70;;;;;;;8.08;100.00;98559.63;1775555;80;20915;-63
2021/11/02 06:06:55;;;;;;;22.32;14.65;;;;;;;8.07;100.00;98564.45;1772440;80;21596;-63
2021/11/02 06:29:26;;;;;;;25.52;14.30;;;;;;;8.21;100.00;98547.29;1760370;81;20985;-64
2021/11/02 06:34:40;;;;;;;22.70;13.68;;;;;;;8.22;100.00;98554.29;1769226;81;20837;-64
2021/11/02 06:40:01;;;;;;;22.37;13.55;;;;;;;8.28;100.00;98553.37;1769073;80;20912;-64
2021/11/02 06:45:40;;;;;;;26.17;15.18;;;;;;;8.30;100.00;98543.28;1763670;80;21500;-63
2021/11/02 07:19:18;;;;;;;27.05;13.13;;;;;;;8.13;100.00;98532.02;1744419;80;21074;-64
2021/11/02 07:22:03;;;;;;;20.30;12.33;;;;;;;8.16;100.00;98536.81;1759871;80;20960;-63
2021/11/02 07:24:28;;;;;;;20.50;13.55;;;;;;;8.15;100.00;98536.82;1754377;80;20914;-63
2021/11/02 07:27:17;;;;;;;21.12;13.28;;;;;;;8.14;100.00;98536.39;1763242;80;21073;-64
2021/11/02 07:30:15;;;;;;;21.02;13.00;;;;;;;8.11;100.00;98535.97;1756862;80;20898;-63
2021/11/02 08:45:46;;;;;;;11.22;8.68;;;;;;;8.58;100.00;98459.89;1728056;81;21486;-63
2021/11/02 08:48:03;;;;;;;17.25;9.95;;;;;;;8.62;100.00;98458.98;1724883;83;21022;-62
2021/11/02 08:50:38;;;;;;;14.25;9.78;;;;;;;8.65;100.00;98455.45;1732319;81;20959;-64
2021/11/02 08:53:05;;;;;;;15.23;10.50;;;;;;;8.66;100.00;98452.81;1708328;83;21168;-63
2021/11/02 08:55:34;;;;;;;13.50;9.48;;;;;;;8.67;100.00;98445.79;1699092;82;21517;-63
2021/11/02 08:58:03;;;;;;;13.78;10.05;;;;;;;8.70;100.00;98446.63;1708940;82;20974;-63
2021/11/02 09:00:32;;;;;;;19.07;9.78;;;;;;;8.77;100.00;98444.81;1723367;81;20981;-63
2021/11/02 09:03:07;;;;;;;14.18;10.30;;;;;;;8.79;100.00;98447.86;1723249;82;21129;-64
2021/11/02 09:05:35;;;;;;;13.55;9.90;;;;;;;8.82;100.00;98446.51;1713434;83;21823;-63
2021/11/02 09:08:04;;;;;;;16.05;11.22;;;;;;;8.81;100.00;98439.50;1711997;83;21055;-64
2021/11/02 09:10:33;;;;;;;14.20;10.28;;;;;;;8.81;100.00;98436.88;1705759;83;21518;-63
2021/11/02 09:13:01;;;;;;;15.03;11.05;;;;;;;8.84;100.00;98432.90;1707074;82;21037;-64
2021/11/02 09:15:33;;;;;;;18.95;11.53;;;;;;;8.85;100.00;98425.88;1704941;84;21055;-65
2021/11/02 09:18:08;;;;;;;15.05;10.70;;;;;;;8.87;100.00;98424.10;1703035;84;21213;-63
2021/11/02 09:20:37;;;;;;;19.02;12.03;;;;;;;8.86;100.00;98419.73;1701589;84;21427;-64
2021/11/02 09:23:06;;;;;;;17.05;11.93;;;;;;;8.89;100.00;98417.51;1707329;82;21544;-63
2021/11/02 09:25:35;;;;;;;17.35;11.70;;;;;;;8.90;100.00;98408.73;1706236;83;21102;-63
2021/11/02 09:28:04;;;;;;;14.03;10.63;;;;;;;8.92;100.00;98406.95;1705874;84;20979;-64
2021/11/02 09:30:33;;;;;;;16.35;12.07;;;;;;;8.95;100.00;98404.29;1705314;84;21824;-64
2021/11/02 09:33:01;;;;;;;16.10;12.07;;;;;;;8.99;100.00;98399.45;1706241;82;21033;-65
2021/11/02 09:35:31;;;;;;;17.80;12.68;;;;;;;9.01;100.00;98391.97;1700255;83;21170;-65
2021/11/02 09:38:40;;;;;;;17.52;12.50;;;;;;;9.03;100.00;98388.88;1703988;84;21036;-65
2021/11/02 09:41:37;;;;;;;20.12;12.73;;;;;;;9.02;100.00;98380.55;1705651;82;21030;-62
2021/11/02 09:44:54;;;;;;;21.77;13.25;;;;;;;8.99;100.00;98371.83;1706317;82;22463;-63
2021/11/02 09:47:53;;;;;;;20.80;13.58;;;;;;;9.00;100.00;98367.00;1703388;82;20988;-64
2021/11/02 09:50:48;;;;;;;18.77;13.00;;;;;;;9.02;100.00;98362.14;1702476;82;21494;-63
2021/11/02 09:53:36;;;;;;;20.55;13.45;;;;;;;9.04;100.00;98360.36;1701945;83;20898;-64
2021/11/02 09:56:19;;;;;;;19.00;12.98;;;;;;;9.09;100.00;98361.17;1701977;83;21092;-64
2021/11/02 09:59:27;;;;;;;17.05;11.93;;;;;;;9.14;100.00;98352.77;1702137;84;21179;-64
2021/11/02 10:02:21;;;;;;;17.82;12.18;;;;;;;9.20;100.00;98343.92;1702206;84;20934;-63
2021/11/02 10:05:21;;;;;;;19.30;12.55;;;;;;;9.29;100.00;98336.35;1696458;84;21080;-63
2021/11/02 10:08:27;;;;;;;19.37;13.28;;;;;;;9.34;100.00;98330.13;1675650;84;20948;-63
2021/11/02 10:11:10;;;;;;;17.67;12.23;;;;;;;9.41;100.00;98337.48;1708778;83;20925;-63
2021/11/02 10:14:01;;;;;;;18.35;12.53;;;;;;;9.45;100.00;98336.55;1708819;84;21542;-62
2021/11/02 10:17:02;;;;;;;21.75;12.60;;;;;;;9.48;100.00;98334.35;1708905;84;20940;-63
2021/11/02 10:20:07;;;;;;;19.23;11.80;;;;;;;9.53;100.00;98329.89;1708796;83;21438;-63
2021/11/02 10:22:58;;;;;;;17.60;11.70;;;;;;;9.57;100.00;98309.20;1708672;84;21502;-63
2021/11/02 10:25:59;;;;;;;19.48;12.60;;;;;;;9.65;100.00;98312.59;1679461;84;21452;-62
2021/11/02 10:29:04;;;;;;;19.82;12.78;;;;;;;9.72;100.00;98313.78;1708829;84;21251;-63
2021/11/02 10:31:36;;;;;;;18.25;12.00;;;;;;;9.81;100.00;98302.67;1708845;84;21514;-63
2021/11/02 10:34:13;;;;;;;20.77;12.68;;;;;;;9.87;100.00;98294.22;1696971;84;20861;-62
2021/11/02 10:37:21;;;;;;;23.07;15.23;;;;;;;9.96;100.00;98294.54;1692872;82;21023;-63
2021/11/02 10:40:17;;;;;;;73.75;37.63;;;;;;;10.04;100.00;98297.45;1708772;84;20912;-63
2021/11/02 10:42:56;;;;;;;48.68;28.73;;;;;;;10.14;100.00;98285.44;1708766;83;21475;-62
2021/11/02 10:45:27;;;;;;;41.18;25.05;;;;;;;10.18;100.00;98289.30;1708765;84;20936;-63
2021/11/02 10:48:03;;;;;;;27.58;17.50;;;;;;;10.21;100.00;98280.50;1709097;84;20881;-62
2021/11/02 10:50:38;;;;;;;22.22;14.75;;;;;;;10.20;100.00;98277.42;1706785;84;20921;-62
2021/11/02 10:53:08;;;;;;;19.57;13.07;;;;;;;10.19;100.00;98273.91;1707506;84;20920;-63
2021/11/02 10:56:01;;;;;;;19.33;12.93;;;;;;;10.17;100.00;98272.20;1708997;84;21137;-62
2021/11/02 10:58:46;;;;;;;20.95;14.58;;;;;;;10.17;100.00;98271.75;1680134;84;21640;-62
2021/11/02 11:01:14;;;;;;;21.05;12.80;;;;;;;10.16;100.00;98260.80;1708827;83;20916;-62
2021/11/02 11:03:42;;;;;;;17.15;12.13;;;;;;;10.20;100.00;98245.79;1708689;83;21058;-63
2021/11/02 11:06:13;;;;;;;16.67;11.95;;;;;;;10.21;100.00;98240.52;1682322;84;20988;-65
2021/11/02 11:08:46;;;;;;;16.82;12.23;;;;;;;10.24;100.00;98234.33;1700870;83;21487;-63
2021/11/02 11:11:18;;;;;;;20.97;13.13;;;;;;;10.28;100.00;98229.41;1700887;83;21527;-63
2021/11/02 11:13:48;;;;;;;17.73;12.68;;;;;;;10.30;100.00;98222.34;1701027;83;21495;-63
2021/11/02 11:16:20;;;;;;;27.93;12.25;;;;;;;10.32;100.00;98220.09;1700913;83;21023;-63
2021/11/02 11:19:17;;;;;;;23.75;12.58;;;;;;;10.42;100.00;98217.30;1700927;84;21418;-63
2021/11/02 11:22:05;;;;;;;22.82;13.83;;;;;;;10.47;100.00;98214.12;1700888;84;21008;-63
2021/11/02 11:25:03;;;;;;;26.97;13.95;;;;;;;10.56;100.00;98209.97;1680902;84;21019;-63
2021/11/02 11:27:32;;;;;;;33.85;14.58;;;;;;;10.59;100.00;98207.27;1694406;83;20953;-63
2021/11/02 11:30:05;;;;;;;30.32;14.33;;;;;;;10.65;100.00;98199.23;1701083;83;20999;-63
2021/11/02 11:32:35;;;;;;;25.48;13.70;;;;;;;10.70;100.00;98197.36;1700853;83;20929;-63
2021/11/02 11:35:06;;;;;;;18.75;13.90;;;;;;;10.73;100.00;98197.29;1701169;83;23331;-63
2021/11/02 11:37:40;;;;;;;19.95;13.30;;;;;;;10.75;100.00;98192.85;1698700;84;21020;-64
2021/11/02 11:44:08;;;;;;;24.32;14.13;;;;;;;10.83;100.00;98190.04;1687191;83;20944;-63
2021/11/02 11:46:36;;;;;;;29.23;15.35;;;;;;;10.86;100.00;98183.38;1647206;84;21505;-63
2021/11/02 11:49:04;;;;;;;29.42;16.15;;;;;;;10.83;100.00;98185.63;1700983;83;21140;-64
2021/11/02 11:51:36;;;;;;;39.58;18.85;;;;;;;10.80;100.00;98182.20;1701635;82;21550;-64
2021/11/02 11:54:08;;;;;;;42.98;19.60;;;;;;;10.80;100.00;98183.06;1704688;82;20969;-63
2021/11/02 11:56:45;;;;;;;34.60;19.85;;;;;;;10.78;100.00;98178.27;1700621;84;20913;-62
2021/11/02 11:59:20;;;;;;;38.67;25.70;;;;;;;10.76;100.00;98177.44;1693203;82;20956;-63
2021/11/02 12:02:14;;;;;;;45.65;27.30;;;;;;;10.78;100.00;98182.68;1681355;84;21088;-63
2021/11/02 12:04:53;;;;;;;51.65;28.83;;;;;;;10.75;100.00;98174.39;1688290;82;21000;-62
2021/11/02 12:07:57;;;;;;;52.62;33.58;;;;;;;10.77;100.00;98173.90;1697656;82;21038;-64
2021/11/02 12:10:26;;;;;;;60.90;36.45;;;;;;;10.80;100.00;98176.92;1700927;83;21495;-63
2021/11/02 12:13:05;;;;;;;60.45;37.38;;;;;;;10.81;100.00;98185.25;1701060;83;21388;-63
2021/11/02 12:15:59;;;;;;;54.13;29.05;;;;;;;10.84;100.00;98183.86;1700970;83;21188;-63
2021/11/02 12:18:26;;;;;;;30.35;22.20;;;;;;;10.84;100.00;98187.37;1700436;84;21412;-62
2021/11/02 12:20:55;;;;;;;37.80;24.18;;;;;;;10.82;100.00;98181.71;1658889;84;21546;-63
2021/11/02 12:23:39;;;;;;;30.72;21.77;;;;;;;10.78;100.00;98179.59;1700873;83;21043;-63
2021/11/02 12:26:09;;;;;;;30.48;20.25;;;;;;;10.75;100.00;98182.30;1700787;84;21428;-63
2021/11/02 12:28:46;;;;;;;22.48;16.20;;;;;;;10.67;100.00;98185.11;1700791;83;21190;-63
2021/11/02 12:31:15;;;;;;;22.80;15.60;;;;;;;10.63;100.00;98186.52;1701010;83;20996;-63
2021/11/02 12:33:52;;;;;;;19.75;15.00;;;;;;;10.60;100.00;98192.73;1689062;84;20989;-64
2021/11/02 12:36:25;;;;;;;21.37;16.52;;;;;;;10.58;100.00;98192.35;1715035;83;21055;-62
2021/11/02 12:39:05;;;;;;;30.05;19.12;;;;;;;10.54;100.00;98187.59;1714876;82;20970;-63
2021/11/02 12:41:54;;;;;;;27.37;18.75;;;;;;;10.51;100.00;98185.02;1714797;83;21082;-63
2021/11/02 12:44:34;;;;;;;26.37;19.20;;;;;;;10.51;100.00;98189.43;1714715;82;21046;-62
2021/11/02 12:47:05;;;;;;;32.33;18.90;;;;;;;10.51;100.00;98187.66;1714853;83;20983;-62
2021/11/02 12:49:47;;;;;;;33.13;19.80;;;;;;;10.48;100.00;98185.09;1714932;82;20888;-64
2021/11/02 12:52:15;;;;;;;31.97;18.70;;;;;;;10.50;100.00;98188.56;1714906;82;21420;-63
